createdAt,value
2023-09-27T00:00:20.997Z,16.07
2023-09-27T00:01:21.006Z,16.01
2023-09-27T00:02:21.043Z,15.94
2023-09-27T00:03:20.991Z,16.00
2023-09-27T00:04:20.938Z,16.09
2023-09-27T00:05:21.012Z,16.00
2023-09-27T00:06:20.934Z,16.09
2023-09-27T00:07:20.978Z,16.03
2023-09-27T00:08:20.966Z,16.07
2023-09-27T00:09:20.886Z,15.99
2023-09-27T00:10:20.881Z,16.11
2023-09-27T00:11:20.972Z,16.11
2023-09-27T00:12:20.867Z,16.06
2023-09-27T00:13:20.844Z,15.99
2023-09-27T00:14:20.885Z,15.84
2023-09-27T00:15:20.832Z,15.76
2023-09-27T00:16:20.843Z,15.75
2023-09-27T00:17:20.824Z,15.75
2023-09-27T00:18:20.824Z,15.78
2023-09-27T00:19:20.772Z,15.74
2023-09-27T00:20:20.813Z,15.72
2023-09-27T00:21:20.745Z,15.84
2023-09-27T00:22:20.732Z,15.81
2023-09-27T00:23:20.881Z,15.74
2023-09-27T00:24:20.724Z,15.61
2023-09-27T00:25:20.718Z,15.74
2023-09-27T00:26:20.750Z,15.74
2023-09-27T00:27:20.689Z,15.75
2023-09-27T00:28:20.713Z,15.68
2023-09-27T00:29:20.721Z,15.66
2023-09-27T00:30:20.662Z,15.70
2023-09-27T00:31:20.646Z,15.74
2023-09-27T00:32:20.648Z,15.61
2023-09-27T00:33:20.681Z,15.66
2023-09-27T00:34:20.610Z,15.70
2023-09-27T00:35:21.298Z,15.74
2023-09-27T00:36:20.583Z,15.70
2023-09-27T00:37:20.562Z,15.67
2023-09-27T00:38:20.572Z,15.61
2023-09-27T00:39:20.549Z,15.59
2023-09-27T00:40:20.581Z,15.57
2023-09-27T00:41:20.539Z,15.64
2023-09-27T00:42:20.507Z,15.63
2023-09-27T00:43:20.494Z,15.61
2023-09-27T00:44:20.895Z,15.49
2023-09-27T00:45:20.493Z,15.61
2023-09-27T00:46:20.506Z,15.64
2023-09-27T00:47:20.493Z,15.59
2023-09-27T00:48:20.479Z,15.61
2023-09-27T00:49:20.433Z,15.67
2023-09-27T00:50:20.614Z,15.54
2023-09-27T00:51:20.405Z,15.60
2023-09-27T00:52:20.404Z,15.57
2023-09-27T00:53:20.418Z,15.60
2023-09-27T00:54:20.367Z,15.56
2023-09-27T00:55:20.372Z,15.60
2023-09-27T00:56:20.362Z,15.56
2023-09-27T00:57:20.335Z,15.61
2023-09-27T00:58:20.322Z,15.56
2023-09-27T00:59:20.358Z,15.56
2023-09-27T01:00:20.304Z,15.57
2023-09-27T01:01:20.314Z,15.61
2023-09-27T01:02:20.343Z,15.61
2023-09-27T01:03:20.327Z,15.66
2023-09-27T01:04:20.254Z,15.67
2023-09-27T01:05:20.364Z,15.68
2023-09-27T01:06:20.314Z,15.68
2023-09-27T01:07:20.230Z,15.59
2023-09-27T01:08:20.240Z,15.64
2023-09-27T06:34:43.014Z,14.65
2023-09-27T06:35:43.002Z,14.64
2023-09-27T06:36:42.951Z,14.61
2023-09-27T06:37:42.936Z,14.56
2023-09-27T06:38:44.962Z,14.67
2023-09-27T06:39:42.922Z,14.71
2023-09-27T06:40:42.911Z,14.78
2023-09-27T06:41:42.901Z,14.69
2023-09-27T06:42:42.896Z,14.80
2023-09-27T06:43:42.870Z,14.84
2023-09-27T06:44:42.888Z,14.75
2023-09-27T06:45:42.863Z,14.87
2023-09-27T06:47:42.991Z,14.81
2023-09-27T06:48:42.859Z,14.90
2023-09-27T06:49:42.808Z,14.98
2023-09-27T06:50:42.853Z,14.94
2023-09-27T06:51:42.775Z,14.98
2023-09-27T06:52:42.776Z,15.01
2023-09-27T06:53:42.804Z,15.09
2023-09-27T06:54:42.746Z,15.12
2023-09-27T06:55:42.752Z,15.17
2023-09-27T06:56:42.766Z,15.11
2023-09-27T06:57:42.737Z,15.06
2023-09-27T06:58:42.698Z,15.21
2023-09-27T06:59:42.761Z,15.19
2023-09-27T07:00:42.694Z,15.26
2023-09-27T07:01:42.685Z,15.24
2023-09-27T07:02:42.703Z,15.21
2023-09-27T07:03:42.944Z,15.20
2023-09-27T07:04:42.633Z,15.21
2023-09-27T07:05:42.668Z,15.30
2023-09-27T07:06:42.656Z,15.28
2023-09-27T07:07:42.601Z,15.30
2023-09-27T07:08:42.675Z,15.46
2023-09-27T07:09:42.573Z,15.36
2023-09-27T07:10:42.564Z,15.33
2023-09-27T07:11:42.614Z,15.49
2023-09-27T07:12:42.542Z,15.39
2023-09-27T07:13:42.528Z,15.42
2023-09-27T07:14:42.588Z,15.48
2023-09-27T07:15:42.509Z,15.45
2023-09-27T07:16:50.765Z,15.51
2023-09-27T07:17:43.613Z,15.51
2023-09-27T07:18:42.560Z,15.57
2023-09-27T07:19:42.461Z,15.45
2023-09-27T07:20:42.469Z,15.51
2023-09-27T07:21:42.454Z,15.56
2023-09-27T07:22:42.453Z,15.56
2023-09-27T07:23:42.458Z,15.64
2023-09-27T07:24:42.407Z,15.51
2023-09-27T07:25:42.395Z,15.68
2023-09-27T07:26:42.433Z,15.67
2023-09-27T07:27:42.390Z,15.66
2023-09-27T07:28:42.372Z,15.67
2023-09-27T07:29:42.388Z,15.75
2023-09-27T07:30:42.446Z,15.76
2023-09-27T07:31:42.345Z,15.70
2023-09-27T07:32:42.409Z,15.78
2023-09-27T07:33:44.737Z,15.82
2023-09-27T07:34:42.298Z,15.85
2023-09-27T07:35:42.304Z,15.88
2023-09-27T07:36:42.283Z,15.88
2023-09-27T07:37:42.257Z,15.89
2023-09-27T07:38:42.304Z,16.04
2023-09-27T07:39:44.774Z,15.97
2023-09-27T07:40:42.242Z,16.04
2023-09-27T07:41:42.255Z,16.07
2023-09-27T07:42:42.201Z,16.20
2023-09-27T07:43:42.190Z,16.23
2023-09-27T07:44:42.221Z,16.16
2023-09-27T07:45:42.171Z,16.03
2023-09-27T07:46:42.231Z,16.20
2023-09-27T07:47:42.174Z,16.12
2023-09-27T07:48:42.136Z,16.00
2023-09-27T07:49:42.124Z,16.06
2023-09-27T07:50:42.140Z,16.07
2023-09-27T07:51:42.119Z,15.97
2023-09-27T07:52:42.094Z,16.00
2023-09-27T07:53:42.265Z,16.00
2023-09-27T07:54:42.251Z,16.01
2023-09-27T07:55:42.080Z,16.03
2023-09-27T07:56:42.092Z,15.99
2023-09-27T07:57:42.030Z,16.07
2023-09-27T07:58:42.023Z,16.15
2023-09-27T07:59:42.080Z,16.07
2023-09-27T08:00:42.060Z,16.11
2023-09-27T08:01:42.095Z,16.18
2023-09-27T08:02:42.181Z,16.34
2023-09-27T08:03:42.173Z,16.30
2023-09-27T08:04:42.008Z,16.49
2023-09-27T08:05:42.068Z,16.52
2023-09-27T08:06:41.952Z,16.58
2023-09-27T08:07:41.913Z,16.50
2023-09-27T08:08:41.959Z,16.62
2023-09-27T08:09:42.353Z,16.59
2023-09-27T08:10:41.918Z,16.67
2023-09-27T08:11:41.953Z,16.55
2023-09-27T08:12:41.858Z,16.62
2023-09-27T08:13:41.892Z,16.68
2023-09-27T08:14:41.870Z,16.77
2023-09-27T08:15:41.824Z,16.67
2023-09-27T08:16:43.500Z,16.67
2023-09-27T08:17:41.863Z,16.68
2023-09-27T08:18:41.816Z,16.74
2023-09-27T08:19:41.774Z,16.85
2023-09-27T08:20:41.868Z,16.90
2023-09-27T08:21:41.760Z,16.95
2023-09-27T08:22:41.740Z,17.11
2023-09-27T08:23:41.742Z,17.11
2023-09-27T08:24:41.720Z,17.29
2023-09-27T08:25:41.706Z,17.33
2023-09-27T08:26:41.767Z,17.48
2023-09-27T08:27:41.683Z,17.54
2023-09-27T08:28:41.673Z,17.55
2023-09-27T08:29:41.732Z,17.66
2023-09-27T08:30:41.696Z,17.73
2023-09-27T08:31:41.924Z,17.85
2023-09-27T08:32:41.702Z,17.88
2023-09-27T08:33:41.619Z,18.00
2023-09-27T08:34:41.603Z,17.91
2023-09-27T08:35:41.689Z,18.00
2023-09-27T08:36:41.601Z,17.95
2023-09-27T08:37:41.572Z,18.07
2023-09-27T08:38:41.652Z,18.09
2023-09-27T08:39:41.552Z,18.06
2023-09-27T08:40:41.536Z,18.12
2023-09-27T08:41:41.578Z,18.13
2023-09-27T08:42:41.557Z,18.15
2023-09-27T08:43:41.498Z,18.36
2023-09-27T08:44:41.551Z,18.49
2023-09-27T08:45:41.501Z,18.64
2023-09-27T08:46:41.528Z,18.79
2023-09-27T08:47:41.483Z,18.92
2023-09-27T08:48:41.463Z,19.14
2023-09-27T08:49:41.434Z,19.21
2023-09-27T08:50:41.481Z,19.33
2023-09-27T08:51:41.421Z,19.39
2023-09-27T08:52:41.409Z,19.47
2023-09-27T08:53:41.391Z,19.47
2023-09-27T08:54:41.378Z,19.65
2023-09-27T08:55:41.367Z,19.69
2023-09-27T08:56:41.435Z,19.79
2023-09-27T08:57:41.341Z,19.75
2023-09-27T08:58:41.479Z,19.87
2023-09-27T08:59:41.387Z,20.21
2023-09-27T09:00:41.339Z,20.35
2023-09-27T09:01:41.473Z,20.49
2023-09-27T09:02:41.438Z,20.72
2023-09-27T09:03:41.546Z,20.80
2023-09-27T09:04:41.292Z,21.01
2023-09-27T09:05:41.374Z,21.11
2023-09-27T09:06:41.325Z,21.14
2023-09-27T09:07:42.390Z,21.17
2023-09-27T09:08:54.629Z,21.08
2023-09-27T09:09:42.206Z,21.05
2023-09-27T09:10:41.197Z,21.04
2023-09-27T09:11:41.232Z,21.04
2023-09-27T09:12:41.174Z,21.04
2023-09-27T09:13:41.164Z,21.16
2023-09-27T09:14:41.233Z,21.24
2023-09-27T09:15:41.206Z,21.38
2023-09-27T09:16:41.592Z,21.39
2023-09-27T09:17:41.177Z,21.41
2023-09-27T09:18:41.115Z,21.44
2023-09-27T09:19:45.126Z,21.51
2023-09-27T09:20:41.112Z,21.69
2023-09-27T09:21:41.088Z,21.90
2023-09-27T09:22:41.067Z,22.02
2023-09-27T09:23:41.088Z,22.20
2023-09-27T09:24:41.041Z,22.34
2023-09-27T09:25:41.031Z,22.47
2023-09-27T09:26:41.067Z,22.56
2023-09-27T09:27:43.461Z,22.62
2023-09-27T09:28:40.994Z,22.68
2023-09-27T09:29:40.994Z,22.52
2023-09-27T09:30:40.995Z,22.59
2023-09-27T09:31:41.008Z,22.44
2023-09-27T09:32:41.036Z,22.37
2023-09-27T09:33:40.984Z,22.47
2023-09-27T09:34:40.925Z,22.39
2023-09-27T09:35:40.953Z,22.34
2023-09-27T09:36:40.916Z,22.49
2023-09-27T09:37:40.892Z,22.50
2023-09-27T09:38:40.927Z,22.54
2023-09-27T09:39:40.889Z,22.52
2023-09-27T09:40:40.857Z,22.65
2023-09-27T09:41:40.875Z,22.71
2023-09-27T09:42:40.832Z,22.77
2023-09-27T09:43:40.822Z,22.78
2023-09-27T09:44:40.882Z,22.93
2023-09-27T09:45:40.831Z,23.05
2023-09-27T09:46:40.841Z,23.09
2023-09-27T09:47:40.920Z,23.09
2023-09-27T09:48:40.761Z,23.17
2023-09-27T09:49:40.753Z,23.07
2023-09-27T09:50:40.785Z,23.05
2023-09-27T09:51:40.744Z,23.12
2023-09-27T09:52:40.714Z,23.14
2023-09-27T09:53:41.010Z,23.19
2023-09-27T09:54:40.696Z,23.34
2023-09-27T09:56:51.531Z,23.70
2023-09-27T09:57:52.483Z,23.80
2023-09-27T09:58:41.653Z,23.77
2023-09-27T09:59:40.689Z,23.77
2023-09-27T10:00:40.628Z,23.79
2023-09-27T10:01:40.688Z,23.77
2023-09-27T10:02:41.932Z,23.58
2023-09-27T10:03:40.690Z,23.26
2023-09-27T10:04:40.617Z,23.31
2023-09-27T10:05:40.670Z,23.26
2023-09-27T10:06:49.276Z,23.19
2023-09-27T10:07:41.575Z,23.19
2023-09-27T10:08:40.581Z,23.68
2023-09-27T10:09:40.530Z,23.97
2023-09-27T10:10:40.517Z,24.14
2023-09-27T10:11:40.565Z,23.97
2023-09-27T10:12:40.520Z,23.72
2023-09-27T10:13:40.508Z,23.50
2023-09-27T10:14:40.591Z,23.26
2023-09-27T10:15:40.463Z,23.05
2023-09-27T10:16:40.494Z,23.14
2023-09-27T10:17:40.546Z,23.15
2023-09-27T10:18:40.499Z,23.05
2023-09-27T10:19:40.417Z,23.11
2023-09-27T10:20:40.454Z,23.14
2023-09-27T10:21:40.400Z,23.19
2023-09-27T10:22:42.864Z,23.26
2023-09-27T10:23:40.405Z,23.35
2023-09-27T10:24:40.360Z,23.43
2023-09-27T10:25:40.350Z,23.46
2023-09-27T10:26:40.374Z,23.57
2023-09-27T10:27:40.352Z,23.58
2023-09-27T10:28:40.315Z,23.70
2023-09-27T10:29:40.371Z,23.70
2023-09-27T10:30:40.297Z,23.80
2023-09-27T10:31:40.341Z,24.05
2023-09-27T10:32:40.412Z,24.29
2023-09-27T10:33:40.422Z,24.45
2023-09-27T10:34:40.292Z,24.76
2023-09-27T10:35:40.335Z,24.67
2023-09-27T10:36:40.684Z,24.90
2023-09-27T10:37:40.256Z,25.16
2023-09-27T10:38:40.253Z,25.25
2023-09-27T10:39:40.208Z,25.53
2023-09-27T10:40:40.191Z,25.69
2023-09-27T10:41:40.394Z,25.94
2023-09-27T10:42:40.177Z,26.18
2023-09-27T10:43:40.164Z,26.12
2023-09-27T10:44:40.202Z,26.28
2023-09-27T10:45:40.151Z,26.35
2023-09-27T10:46:40.127Z,26.54
2023-09-27T10:47:40.229Z,26.58
2023-09-27T10:48:40.123Z,26.67
2023-09-27T10:49:40.122Z,26.73
2023-09-27T10:50:40.174Z,26.80
2023-09-27T10:51:42.819Z,26.86
2023-09-27T10:52:40.087Z,26.98
2023-09-27T10:53:40.162Z,26.92
2023-09-27T10:54:40.042Z,26.91
2023-09-27T10:55:40.039Z,27.06
2023-09-27T10:56:40.030Z,26.83
2023-09-27T10:57:40.017Z,26.61
2023-09-27T10:58:39.993Z,26.65
2023-09-27T10:59:40.008Z,26.65
2023-09-27T11:00:39.970Z,26.62
2023-09-27T11:01:40.682Z,26.74
2023-09-27T11:02:40.043Z,26.65
2023-09-27T11:03:39.985Z,26.65
2023-09-27T11:04:39.965Z,26.67
2023-09-27T11:05:39.999Z,26.32
2023-09-27T11:06:39.994Z,26.18
2023-09-27T11:07:39.912Z,26.09
2023-09-27T11:08:39.914Z,25.82
2023-09-27T11:09:39.871Z,25.90
2023-09-27T11:10:39.871Z,25.77
2023-09-27T11:11:39.893Z,25.82
2023-09-27T11:12:39.856Z,25.82
2023-09-27T11:13:39.827Z,25.93
2023-09-27T11:14:39.860Z,26.22
2023-09-27T11:15:39.807Z,26.44
2023-09-27T11:16:39.795Z,26.46
2023-09-27T11:17:39.936Z,26.64
2023-09-27T11:18:39.823Z,26.74
2023-09-27T11:19:39.764Z,26.91
2023-09-27T11:20:39.772Z,26.83
2023-09-27T11:21:39.746Z,26.98
2023-09-27T11:22:39.764Z,27.05
2023-09-27T11:23:40.772Z,27.04
2023-09-27T11:24:39.715Z,26.96
2023-09-27T11:25:39.696Z,26.91
2023-09-27T11:26:39.741Z,26.83
2023-09-27T11:27:39.690Z,26.83
2023-09-27T11:28:39.662Z,26.99
2023-09-27T11:29:39.668Z,27.13
2023-09-27T11:30:39.640Z,27.21
2023-09-27T11:31:39.711Z,27.21
2023-09-27T11:32:39.707Z,27.04
2023-09-27T11:33:39.612Z,26.94
2023-09-27T11:34:39.600Z,26.91
2023-09-27T11:35:39.653Z,26.99
2023-09-27T11:36:39.576Z,27.09
2023-09-27T11:37:39.584Z,27.17
2023-09-27T11:38:39.594Z,27.33
2023-09-27T11:39:39.542Z,27.46
2023-09-27T11:40:39.689Z,27.41
2023-09-27T11:41:39.550Z,27.42
2023-09-27T11:42:39.650Z,27.42
2023-09-27T11:43:40.252Z,27.32
2023-09-27T11:44:39.560Z,27.32
2023-09-27T11:45:39.514Z,27.20
2023-09-27T11:46:39.469Z,27.16
2023-09-27T11:47:39.557Z,27.21
2023-09-27T11:48:39.446Z,27.10
2023-09-27T11:49:39.442Z,27.17
2023-09-27T11:50:39.445Z,27.21
2023-09-27T11:51:39.444Z,27.23
2023-09-27T11:52:39.404Z,27.26
2023-09-27T11:53:39.472Z,27.20
2023-09-27T11:54:39.414Z,27.05
2023-09-27T11:55:39.402Z,27.05
2023-09-27T11:56:39.414Z,26.95
2023-09-27T11:57:39.350Z,26.79
2023-09-27T11:58:40.784Z,26.65
2023-09-27T11:59:39.353Z,26.61
2023-09-27T12:00:39.345Z,26.58
2023-09-27T12:01:39.377Z,26.47
2023-09-27T12:02:52.253Z,26.36
2023-09-27T12:03:40.427Z,26.25
2023-09-27T12:04:39.512Z,26.21
2023-09-27T12:05:39.572Z,26.08
2023-09-27T12:06:39.490Z,26.02
2023-09-27T12:07:39.645Z,26.08
2023-09-27T12:08:39.324Z,26.11
2023-09-27T12:09:39.230Z,26.25
2023-09-27T12:10:39.255Z,26.43
2023-09-27T12:11:39.236Z,26.62
2023-09-27T12:12:39.167Z,26.65
2023-09-27T12:13:39.179Z,26.84
2023-09-27T12:14:39.183Z,26.92
2023-09-27T12:15:39.143Z,26.95
2023-09-27T12:16:39.214Z,27.11
2023-09-27T12:17:39.348Z,27.29
2023-09-27T12:18:39.208Z,27.57
2023-09-27T12:19:39.091Z,27.62
2023-09-27T12:20:42.568Z,27.76
2023-09-27T12:21:40.082Z,27.88
2023-09-27T12:22:39.059Z,27.92
2023-09-27T12:23:39.121Z,28.09
2023-09-27T12:24:39.039Z,28.04
2023-09-27T12:25:39.026Z,28.04
2023-09-27T12:26:39.058Z,27.95
2023-09-27T12:27:39.005Z,28.07
2023-09-27T12:28:39.002Z,28.17
2023-09-27T12:29:39.020Z,28.17
2023-09-27T12:30:38.985Z,28.41
2023-09-27T12:31:39.012Z,28.46
2023-09-27T12:32:39.005Z,28.44
2023-09-27T12:33:38.984Z,28.48
2023-09-27T12:34:38.926Z,28.43
2023-09-27T12:35:38.942Z,28.38
2023-09-27T12:36:38.905Z,28.25
2023-09-27T12:37:38.992Z,27.86
2023-09-27T12:38:38.913Z,27.46
2023-09-27T12:39:38.871Z,27.26
2023-09-27T12:40:38.866Z,27.14
2023-09-27T12:41:38.885Z,26.92
2023-09-27T12:42:38.858Z,26.89
2023-09-27T12:43:38.857Z,26.74
2023-09-27T12:44:38.842Z,26.59
2023-09-27T12:45:38.850Z,26.50
2023-09-27T12:46:38.793Z,26.55
2023-09-27T12:47:38.916Z,26.67
2023-09-27T12:48:38.870Z,26.77
2023-09-27T12:49:38.763Z,26.99
2023-09-27T12:50:38.781Z,27.24
2023-09-27T12:51:48.281Z,27.29
2023-09-27T12:52:39.734Z,27.47
2023-09-27T12:53:38.754Z,27.58
2023-09-27T12:54:38.710Z,27.62
2023-09-27T12:55:38.696Z,27.76
2023-09-27T12:56:38.741Z,27.98
2023-09-27T12:57:38.676Z,27.91
2023-09-27T12:58:38.690Z,27.89
2023-09-27T12:59:38.700Z,27.84
2023-09-27T13:00:38.696Z,27.74
2023-09-27T13:01:40.714Z,27.69
2023-09-27T13:02:38.768Z,27.62
2023-09-27T13:03:38.769Z,27.76
2023-09-27T13:04:38.642Z,27.91
2023-09-27T13:05:38.680Z,27.98
2023-09-27T13:06:38.581Z,28.09
2023-09-27T13:07:38.565Z,28.22
2023-09-27T13:08:38.597Z,28.31
2023-09-27T13:09:38.545Z,28.47
2023-09-27T13:10:38.541Z,28.36
2023-09-27T13:11:38.613Z,28.28
2023-09-27T13:12:38.966Z,28.25
2023-09-27T13:13:38.517Z,28.16
2023-09-27T13:14:38.547Z,28.22
2023-09-27T13:15:38.537Z,28.32
2023-09-27T13:16:38.472Z,28.29
2023-09-27T13:17:38.528Z,28.31
2023-09-27T13:18:38.478Z,28.28
2023-09-27T13:19:38.456Z,28.26
2023-09-27T13:20:38.451Z,28.36
2023-09-27T13:21:38.415Z,28.35
2023-09-27T13:22:38.419Z,28.31
2023-09-27T13:23:38.494Z,28.31
2023-09-27T13:24:38.383Z,28.35
2023-09-27T13:25:38.385Z,28.53
2023-09-27T13:26:38.471Z,28.65
2023-09-27T13:27:38.350Z,28.81
2023-09-27T13:28:38.356Z,28.85
2023-09-27T13:29:38.367Z,28.63
2023-09-27T13:30:38.365Z,28.62
2023-09-27T13:31:38.323Z,28.56
2023-09-27T13:32:38.335Z,28.56
2023-09-27T13:33:38.393Z,28.51
2023-09-27T13:34:38.275Z,28.44
2023-09-27T13:35:38.303Z,28.44
2023-09-27T13:36:38.250Z,28.28
2023-09-27T13:37:38.246Z,28.21
2023-09-27T13:38:38.255Z,28.22
2023-09-27T13:39:38.219Z,28.16
2023-09-27T13:40:38.219Z,28.13
2023-09-27T13:41:38.235Z,28.03
2023-09-27T13:42:38.182Z,28.06
2023-09-27T13:43:38.226Z,28.04
2023-09-27T13:44:38.229Z,28.04
2023-09-27T13:45:38.357Z,27.95
2023-09-27T13:46:38.240Z,28.04
2023-09-27T13:47:38.167Z,27.92
2023-09-27T13:48:38.149Z,27.96
2023-09-27T13:49:38.111Z,27.98
2023-09-27T13:50:38.109Z,27.89
2023-09-27T13:51:38.438Z,27.67
2023-09-27T13:52:38.125Z,27.54
2023-09-27T13:53:38.128Z,27.47
2023-09-27T13:54:38.049Z,27.50
2023-09-27T13:55:38.086Z,27.38
2023-09-27T13:56:38.190Z,27.33
2023-09-27T13:57:38.024Z,27.17
2023-09-27T13:58:38.043Z,27.09
2023-09-27T13:59:38.028Z,26.91
2023-09-27T14:00:37.989Z,26.99
2023-09-27T14:01:38.005Z,26.92
2023-09-27T14:02:38.021Z,26.81
2023-09-27T14:03:38.000Z,26.81
2023-09-27T14:04:37.953Z,26.64
2023-09-27T14:05:37.991Z,26.61
2023-09-27T14:06:37.931Z,26.67
2023-09-27T14:07:37.911Z,26.72
2023-09-27T14:08:37.975Z,26.73
2023-09-27T14:09:37.943Z,26.69
2023-09-27T14:10:37.875Z,26.92
2023-09-27T14:11:37.906Z,26.91
2023-09-27T14:12:37.877Z,27.11
2023-09-27T14:13:37.839Z,27.16
2023-09-27T14:14:37.900Z,27.26
2023-09-27T14:15:37.849Z,27.29
2023-09-27T14:16:38.053Z,27.32
2023-09-27T14:17:37.869Z,27.53
2023-09-27T14:18:37.892Z,27.67
2023-09-27T14:19:37.795Z,27.64
2023-09-27T14:20:37.813Z,27.79
2023-09-27T14:21:37.763Z,27.89
2023-09-27T14:22:37.747Z,27.77
2023-09-27T14:23:37.801Z,27.79
2023-09-27T14:24:37.736Z,27.89
2023-09-27T14:25:38.815Z,27.85
2023-09-27T14:26:37.761Z,27.80
2023-09-27T14:27:37.689Z,27.73
2023-09-27T14:28:37.692Z,27.71
2023-09-27T14:29:37.744Z,27.85
2023-09-27T14:30:37.663Z,27.85
2023-09-27T14:31:37.703Z,27.71
2023-09-27T14:32:37.810Z,27.86
2023-09-27T14:33:37.675Z,27.86
2023-09-27T14:35:52.514Z,27.85
2023-09-27T14:36:38.589Z,27.86
2023-09-27T14:37:37.692Z,27.85
2023-09-27T14:38:37.568Z,27.89
2023-09-27T14:39:37.567Z,27.88
2023-09-27T14:40:37.575Z,27.79
2023-09-27T14:41:37.533Z,27.95
2023-09-27T14:42:37.523Z,28.01
2023-09-27T14:43:37.537Z,28.03
2023-09-27T14:44:37.518Z,27.91
2023-09-27T14:45:37.532Z,27.77
2023-09-27T14:46:37.552Z,27.77
2023-09-27T14:47:37.509Z,27.54
2023-09-27T14:48:37.454Z,27.71
2023-09-27T14:49:37.492Z,27.82
2023-09-27T14:50:37.463Z,27.91
2023-09-27T14:51:37.427Z,27.86
2023-09-27T14:52:37.441Z,27.80
2023-09-27T14:53:37.400Z,27.59
2023-09-27T14:54:37.416Z,27.43
2023-09-27T14:55:37.405Z,27.17
2023-09-27T14:56:37.367Z,26.99
2023-09-27T14:57:37.354Z,26.89
2023-09-27T14:58:37.370Z,26.81
2023-09-27T14:59:37.348Z,26.92
2023-09-27T15:00:37.331Z,26.80
2023-09-27T15:01:37.362Z,26.79
2023-09-27T15:02:37.323Z,26.73
2023-09-27T15:03:37.389Z,26.68
2023-09-27T15:04:37.477Z,26.69
2023-09-27T15:05:37.327Z,26.58
2023-09-27T15:06:37.283Z,26.47
2023-09-27T15:07:37.304Z,26.31
2023-09-27T15:08:37.237Z,26.20
2023-09-27T15:09:37.246Z,26.06
2023-09-27T15:10:37.261Z,26.01
2023-09-27T15:11:37.201Z,25.84
2023-09-27T15:12:37.193Z,25.91
2023-09-27T15:13:37.201Z,25.91
2023-09-27T15:14:37.179Z,25.83
2023-09-27T15:15:37.297Z,25.83
2023-09-27T15:16:37.152Z,25.84
2023-09-27T15:17:37.177Z,25.79
2023-09-27T15:18:37.128Z,25.80
2023-09-27T15:19:37.169Z,25.75
2023-09-27T15:20:37.100Z,25.74
2023-09-27T15:21:37.090Z,25.75
2023-09-27T15:22:37.120Z,25.69
2023-09-27T15:23:37.064Z,25.74
2023-09-27T15:24:38.517Z,25.69
2023-09-27T15:25:37.063Z,25.69
2023-09-27T15:26:37.042Z,25.65
2023-09-27T15:27:37.073Z,25.69
2023-09-27T15:28:37.027Z,25.69
2023-09-27T15:29:37.012Z,25.67
2023-09-27T15:30:36.986Z,25.61
2023-09-27T15:31:37.044Z,25.57
2023-09-27T15:32:36.983Z,25.57
2023-09-27T15:33:36.962Z,25.64
2023-09-27T15:34:37.008Z,25.56
2023-09-27T15:35:36.928Z,25.68
2023-09-27T15:36:36.921Z,25.56
2023-09-27T15:37:36.925Z,25.56
2023-09-27T15:38:36.919Z,25.50
2023-09-27T15:39:36.909Z,25.53
2023-09-27T15:40:36.919Z,25.43
2023-09-27T15:41:36.864Z,25.50
2023-09-27T15:42:36.854Z,25.42
2023-09-27T15:43:36.913Z,25.34
2023-09-27T15:44:36.872Z,25.31
2023-09-27T15:45:36.827Z,25.35
2023-09-27T15:46:36.817Z,25.28
2023-09-27T15:47:36.840Z,25.30
2023-09-27T15:48:36.786Z,25.19
2023-09-27T15:49:36.797Z,25.17
2023-09-27T15:50:36.764Z,25.17
2023-09-27T15:51:36.751Z,25.16
2023-09-27T15:52:36.748Z,25.07
2023-09-27T15:53:36.734Z,25.16
2023-09-27T15:54:36.780Z,25.10
2023-09-27T15:55:36.730Z,25.09
2023-09-27T15:56:36.703Z,25.00
2023-09-27T15:57:36.687Z,25.06
2023-09-27T15:58:36.692Z,25.07
2023-09-27T15:59:36.682Z,24.91
2023-09-27T16:00:36.653Z,24.95
2023-09-27T16:01:36.768Z,24.95
2023-09-27T16:02:36.655Z,24.91
2023-09-27T16:03:36.725Z,24.85
2023-09-27T16:04:45.991Z,24.91
2023-09-27T16:05:37.626Z,24.82
2023-09-27T16:06:36.596Z,24.80
2023-09-27T16:07:36.607Z,24.87
2023-09-27T16:08:36.568Z,24.83
2023-09-27T16:09:36.598Z,24.76
2023-09-27T16:10:42.581Z,24.69
2023-09-27T16:11:38.367Z,24.68
2023-09-27T16:12:36.517Z,24.61
2023-09-27T16:13:36.522Z,24.64
2023-09-27T16:14:36.523Z,24.56
2023-09-27T16:15:36.509Z,24.53
2023-09-27T16:16:36.503Z,24.45
2023-09-27T16:17:38.415Z,24.42
2023-09-27T16:18:36.454Z,24.41
2023-09-27T16:19:36.477Z,24.41
2023-09-27T16:20:36.436Z,24.34
2023-09-27T16:21:36.431Z,24.38
2023-09-27T16:22:36.476Z,24.35
2023-09-27T16:23:36.400Z,24.16
2023-09-27T16:24:36.423Z,24.23
2023-09-27T16:25:36.448Z,24.13
2023-09-27T16:26:36.399Z,24.20
2023-09-27T16:27:36.389Z,24.12
2023-09-27T16:28:36.474Z,24.13
2023-09-27T16:29:36.362Z,23.95
2023-09-27T16:30:36.335Z,23.95
2023-09-27T16:31:36.413Z,23.98
2023-09-27T16:32:36.545Z,23.98
2023-09-27T16:33:36.343Z,23.90
2023-09-27T16:34:36.367Z,23.90
2023-09-27T16:35:36.273Z,23.80
2023-09-27T16:36:36.261Z,23.86
2023-09-27T16:37:36.340Z,23.77
2023-09-27T16:38:36.237Z,23.85
2023-09-27T16:39:36.225Z,23.83
2023-09-27T16:40:36.253Z,23.76
2023-09-27T16:41:36.210Z,23.83
2023-09-27T16:42:36.218Z,23.75
2023-09-27T16:43:36.203Z,23.77
2023-09-27T16:44:36.174Z,23.67
2023-09-27T16:45:36.211Z,23.62
2023-09-27T16:46:36.178Z,23.65
2023-09-27T16:47:36.198Z,23.65
2023-09-27T16:48:36.241Z,23.64
2023-09-27T16:49:36.146Z,23.60
2023-09-27T16:50:36.127Z,23.64
2023-09-27T16:51:36.099Z,23.49
2023-09-27T16:52:36.121Z,23.38
2023-09-27T16:53:36.100Z,23.46
2023-09-27T16:54:36.061Z,23.47
2023-09-27T16:55:36.146Z,23.38
2023-09-27T16:56:36.040Z,23.27
2023-09-27T16:57:36.026Z,23.31
2023-09-27T16:58:36.073Z,23.26
2023-09-27T16:59:36.004Z,23.27
2023-09-27T17:00:36.021Z,23.23
2023-09-27T17:01:36.045Z,23.11
2023-09-27T17:02:36.058Z,23.14
2023-09-27T17:03:36.053Z,23.11
2023-09-27T17:04:36.038Z,23.14
2023-09-27T17:05:35.962Z,23.12
2023-09-27T17:06:35.929Z,23.14
2023-09-27T17:07:36.074Z,23.08
2023-09-27T17:08:35.902Z,23.08
2023-09-27T17:09:35.906Z,22.99
2023-09-27T17:10:35.987Z,23.04
2023-09-27T17:11:35.898Z,23.14
2023-09-27T17:12:35.877Z,23.07
2023-09-27T17:13:35.889Z,22.99
2023-09-27T17:14:35.862Z,23.01
2023-09-27T17:15:35.879Z,22.94
2023-09-27T17:16:35.848Z,22.99
2023-09-27T17:17:35.800Z,22.90
2023-09-27T17:18:35.795Z,22.90
2023-09-27T17:19:35.834Z,22.84
2023-09-27T17:20:35.801Z,22.90
2023-09-27T17:21:35.756Z,22.80
2023-09-27T17:22:35.790Z,22.84
2023-09-27T17:23:35.738Z,22.83
2023-09-27T17:24:35.724Z,22.90
2023-09-27T17:25:35.766Z,22.86
2023-09-27T17:26:35.709Z,22.78
2023-09-27T17:27:35.710Z,22.69
2023-09-27T17:28:35.701Z,22.74
2023-09-27T17:29:35.672Z,22.74
2023-09-27T17:30:35.699Z,22.60
2023-09-27T17:31:35.723Z,22.52
2023-09-27T17:32:35.725Z,22.53
2023-09-27T17:33:35.654Z,22.59
2023-09-27T17:34:35.627Z,22.44
2023-09-27T17:35:35.614Z,22.39
2023-09-27T17:36:35.592Z,22.52
2023-09-27T17:37:35.643Z,22.46
2023-09-27T17:38:35.588Z,22.34
2023-09-27T17:39:35.571Z,22.37
2023-09-27T17:40:35.581Z,22.35
2023-09-27T17:41:35.533Z,22.29
2023-09-27T17:42:35.524Z,22.19
2023-09-27T17:43:35.608Z,22.34
2023-09-27T17:44:35.503Z,22.20
2023-09-27T17:45:35.527Z,22.20
2023-09-27T17:46:35.524Z,22.22
2023-09-27T17:47:35.494Z,22.12
2023-09-27T17:48:35.460Z,22.14
2023-09-27T17:49:35.567Z,22.10
2023-09-27T17:50:35.452Z,21.98
2023-09-27T17:51:35.430Z,21.97
2023-09-27T17:52:35.450Z,22.12
2023-09-27T17:53:35.400Z,22.02
2023-09-27T17:54:35.395Z,21.92
2023-09-27T17:55:35.417Z,21.92
2023-09-27T17:56:35.365Z,21.94
2023-09-27T17:57:35.354Z,21.99
2023-09-27T17:58:35.354Z,21.95
2023-09-27T17:59:35.330Z,22.04
2023-09-27T18:00:35.336Z,21.95
2023-09-27T18:01:35.404Z,21.82
2023-09-27T18:02:35.468Z,21.95
2023-09-27T18:03:35.387Z,21.97
2023-09-27T18:04:35.325Z,22.01
2023-09-27T18:05:35.278Z,21.83
2023-09-27T18:06:35.256Z,21.94
2023-09-27T18:07:35.239Z,21.94
2023-09-27T18:08:35.231Z,21.91
2023-09-27T18:09:35.214Z,21.92
2023-09-27T18:10:35.239Z,21.82
2023-09-27T18:11:35.197Z,21.85
2023-09-27T18:12:35.186Z,21.82
2023-09-27T18:13:35.211Z,21.79
2023-09-27T18:14:35.159Z,21.85
2023-09-27T18:15:35.160Z,21.85
2023-09-27T18:16:35.190Z,21.85
2023-09-27T18:17:35.155Z,21.74
2023-09-27T18:18:35.135Z,21.81
2023-09-27T18:19:35.126Z,21.60
2023-09-27T18:20:35.109Z,21.66